createdAt,value
2015-10-24T10:07:56.025Z,98677
2015-10-24T10:08:08.260Z,98680
2015-10-24T10:08:24.825Z,98675
2015-10-24T10:08:37.591Z,98689
2015-10-24T10:08:49.356Z,98677
2015-10-24T10:09:02.294Z,98683
2015-10-24T10:09:14.216Z,98683
2015-10-24T10:09:26.343Z,98672
2015-10-24T10:09:38.171Z,98683
2015-10-24T10:09:49.968Z,98674
2015-10-24T10:10:01.811Z,98683
2015-10-24T10:10:13.655Z,98674
2015-10-24T10:10:25.486Z,98675
2015-10-24T10:10:37.486Z,98675
2015-10-24T10:10:49.330Z,98678
2015-10-24T10:11:01.705Z,98675
2015-10-24T10:11:13.580Z,98667
2015-10-24T10:11:25.411Z,98679
2015-10-24T10:11:37.333Z,98670
2015-10-24T10:11:49.239Z,98673
2015-10-24T10:12:01.661Z,98665
2015-10-24T10:12:13.536Z,98671
2015-10-24T10:12:26.758Z,98671
2015-10-24T10:12:39.711Z,98679
2015-10-24T10:12:53.180Z,98668
2015-10-24T10:13:05.008Z,98671
2015-10-24T10:13:16.899Z,98668
2015-10-24T10:13:28.697Z,98665
2015-10-24T10:13:41.135Z,98662
2015-10-24T10:13:53.041Z,98668
2015-10-24T10:14:06.010Z,98674
2015-10-24T10:14:18.744Z,98663
2015-10-24T10:14:37.997Z,98674
2015-10-24T10:14:49.857Z,98674
2015-10-24T10:15:02.075Z,98674
2015-10-24T10:15:15.185Z,98677
2015-10-24T10:15:27.735Z,98677
2015-10-24T10:15:39.703Z,98674
2015-10-24T10:15:51.594Z,98677
2015-10-24T10:16:03.860Z,98672
2015-10-24T10:16:16.703Z,98672
2015-10-24T10:16:33.674Z,98669
2015-10-24T10:16:45.518Z,98672
2015-10-24T10:16:57.409Z,98666
2015-10-24T10:17:09.393Z,98657
2015-10-24T10:17:21.284Z,98666
2015-10-24T10:17:33.427Z,98669
2015-10-24T10:17:45.568Z,98663
2015-10-24T10:17:57.427Z,98660
2015-10-24T10:18:10.255Z,98657
2015-10-24T10:18:22.130Z,98657
2015-10-24T10:18:34.696Z,98657
2015-10-24T10:18:46.586Z,98653
2015-10-24T10:18:58.461Z,98657
2015-10-24T10:19:10.915Z,98660
2015-10-24T10:19:22.836Z,98669
2015-10-24T10:19:34.714Z,98660
2015-10-24T10:19:46.668Z,98672
2015-10-24T10:19:58.996Z,98666
2015-10-24T10:20:10.855Z,98689
2015-10-24T10:20:23.339Z,98672
2015-10-24T10:20:35.170Z,98692
2015-10-24T10:20:46.966Z,98678
2015-10-24T10:20:58.810Z,98686
2015-10-24T10:21:10.670Z,98686
2015-10-24T10:21:23.138Z,98683
2015-10-24T10:21:35.001Z,98672
2015-10-24T10:21:46.813Z,98669
2015-10-24T10:21:58.688Z,98669
2015-10-24T10:22:10.548Z,98677
2015-10-24T10:22:22.454Z,98683
2015-10-24T10:22:34.785Z,98663
2015-10-24T10:22:46.613Z,98672
2015-10-24T10:22:58.988Z,98669
2015-10-24T10:23:10.832Z,98672
2015-10-24T10:23:22.707Z,98672
2015-10-24T10:23:34.584Z,98672
2015-10-24T10:23:46.443Z,98660
2015-10-24T10:23:58.318Z,98675
2015-10-24T10:24:10.115Z,98669
2015-10-24T10:24:21.943Z,98672
2015-10-24T10:24:33.807Z,98672
2015-10-24T10:24:45.666Z,98658
2015-10-24T10:24:57.525Z,98675
2015-10-24T10:25:09.369Z,98675
2015-10-24T10:25:21.213Z,98675
2015-10-24T10:25:33.090Z,98675
2015-10-24T10:25:44.949Z,98681
2015-10-24T10:25:57.340Z,98683
2015-10-24T10:26:09.199Z,98681
2015-10-24T10:26:21.059Z,98681
2015-10-24T10:26:32.937Z,98678
2015-10-24T10:26:45.687Z,98689
2015-10-24T10:26:58.655Z,98678
2015-10-24T10:27:13.515Z,98669
2015-10-24T10:27:25.405Z,98678
2015-10-24T10:27:38.907Z,98672
2015-10-24T10:27:50.798Z,98675
2015-10-24T10:28:03.235Z,98675
2015-10-24T10:28:15.157Z,98658
2015-10-24T10:28:27.017Z,98672
2015-10-24T10:28:38.910Z,98666
2015-10-24T10:28:51.645Z,98663
2015-10-24T10:29:04.754Z,98666
2015-10-24T10:29:17.113Z,98660
2015-10-24T10:29:28.988Z,98675
2015-10-24T10:29:40.866Z,98669
2015-10-24T10:29:52.679Z,98663
2015-10-24T10:30:05.116Z,98672
2015-10-24T10:30:16.991Z,98675
2015-10-24T10:30:28.851Z,98675
2015-10-24T10:30:40.760Z,98686
2015-10-24T10:30:53.713Z,98678
2015-10-24T10:31:05.541Z,98678
2015-10-24T10:31:18.119Z,98672
2015-10-24T10:31:30.151Z,98683
2015-10-24T10:31:41.981Z,98675
2015-10-24T10:31:54.325Z,98678
2015-10-24T10:32:06.200Z,98681
2015-10-24T10:32:18.403Z,98678
2015-10-24T10:32:30.278Z,98675
2015-10-24T10:32:42.499Z,98672
2015-10-24T10:32:54.406Z,98683
2015-10-24T10:33:06.359Z,98669
2015-10-24T10:33:18.437Z,98678
2015-10-24T10:33:30.437Z,98675
2015-10-24T10:33:42.346Z,98675
2015-10-24T10:33:54.268Z,98660
2015-10-24T10:34:06.127Z,98672
2015-10-24T10:34:18.065Z,98657
2015-10-24T10:34:30.596Z,98663
2015-10-24T10:34:43.129Z,98672
2015-10-24T10:34:55.098Z,98660
2015-10-24T10:35:07.083Z,98669
2015-10-24T10:35:19.958Z,98680
2015-10-24T10:35:32.945Z,98677
2015-10-24T10:35:44.851Z,98675
2015-10-24T10:35:56.789Z,98677
2015-10-24T10:36:08.679Z,98672
2015-10-24T10:36:20.632Z,98677
2015-10-24T10:36:32.509Z,98672
2015-10-24T10:36:45.025Z,98686
2015-10-24T10:36:57.259Z,98666
2015-10-24T10:37:09.197Z,98672
2015-10-24T10:37:21.134Z,98675
2015-10-24T10:37:33.091Z,98674
2015-10-24T10:37:45.106Z,98677
2015-10-24T10:37:56.981Z,98674
2015-10-24T10:38:08.934Z,98672
2015-10-24T10:38:21.216Z,98674
2015-10-24T10:38:33.094Z,98666
2015-10-24T10:38:45.890Z,98669
2015-10-24T10:38:58.234Z,98669
2015-10-24T10:39:13.156Z,98672
2015-10-24T10:39:25.109Z,98669
2015-10-24T10:39:37.065Z,98669
2015-10-24T10:39:49.643Z,98669
2015-10-24T10:40:08.831Z,98677
2015-10-24T10:40:20.690Z,98672
2015-10-24T10:40:32.631Z,98677
2015-10-24T10:40:44.740Z,98672
2015-10-24T10:40:56.756Z,98675
2015-10-24T10:41:09.209Z,98680
2015-10-24T10:41:21.225Z,98675
2015-10-24T10:41:33.273Z,98677
2015-10-24T10:41:48.180Z,98680
2015-10-24T10:42:00.102Z,98675
2015-10-24T10:42:12.023Z,98669
2015-10-24T10:42:24.039Z,98666
2015-10-24T10:42:36.025Z,98669
2015-10-24T10:42:48.322Z,98672
2015-10-24T10:43:00.260Z,98669
2015-10-24T10:43:12.166Z,98669
2015-10-24T10:43:24.135Z,98669
2015-10-24T10:43:36.138Z,98669
2015-10-24T10:43:48.169Z,98666
2015-10-24T10:44:00.091Z,98669
2015-10-24T10:44:13.013Z,98677
2015-10-24T10:44:24.919Z,98672
2015-10-24T10:44:36.828Z,98677
2015-10-24T10:44:48.641Z,98666
2015-10-24T10:45:01.110Z,98669
2015-10-24T10:45:13.094Z,98672
2015-10-24T10:45:25.172Z,98675
2015-10-24T10:45:37.081Z,98669
2015-10-24T10:45:49.034Z,98686
2015-10-24T10:46:01.019Z,98677
2015-10-24T10:46:12.956Z,98666
2015-10-24T10:46:25.331Z,98660
2015-10-24T10:46:37.225Z,98672
2015-10-24T10:46:49.459Z,98678
2015-10-24T10:47:01.366Z,98672
2015-10-24T10:47:13.303Z,98666
2015-10-24T10:47:25.287Z,98660
2015-10-24T10:47:38.414Z,98663
2015-10-24T10:47:50.305Z,98663
2015-10-24T10:48:03.383Z,98675
2015-10-24T10:48:15.774Z,98672
2015-10-24T10:48:27.664Z,98675
2015-10-24T10:48:39.558Z,98672
2015-10-24T10:48:51.417Z,98678
2015-10-24T10:49:03.621Z,98669
2015-10-24T10:49:15.980Z,98678
2015-10-24T10:49:27.886Z,98678
2015-10-24T10:49:39.905Z,98669
2015-10-24T10:49:51.842Z,98678
2015-10-24T10:50:03.686Z,98678
2015-10-24T10:50:15.608Z,98678
2015-10-24T10:50:27.561Z,98681
2015-10-24T10:50:40.047Z,98666
2015-10-24T10:50:51.985Z,98672
2015-10-24T10:51:03.938Z,98672
2015-10-24T10:51:15.844Z,98672
2015-10-24T10:51:27.704Z,98678
2015-10-24T10:51:39.644Z,98669
2015-10-24T10:51:51.675Z,98675
2015-10-24T10:52:03.582Z,98669
2015-10-24T10:52:15.472Z,98669
2015-10-24T10:52:27.379Z,98672
2015-10-24T10:52:39.349Z,98669
2015-10-24T10:52:51.287Z,98672
2015-10-24T10:53:03.896Z,98675
2015-10-24T10:53:15.756Z,98672
2015-10-24T10:53:28.521Z,98678
2015-10-24T10:53:41.009Z,98678
2015-10-24T10:54:21.774Z,98681
2015-10-24T10:54:34.024Z,98669
2015-10-24T10:54:46.121Z,98678
2015-10-24T10:54:58.387Z,98675
2015-10-24T10:55:10.715Z,98675
2015-10-24T10:55:23.090Z,98672
2015-10-24T10:55:34.980Z,98669
2015-10-24T10:55:50.499Z,98672
2015-10-24T10:56:02.999Z,98678
2015-10-24T10:56:16.077Z,98678
2015-10-24T10:56:28.327Z,98670
2015-10-24T10:56:40.205Z,98667
2015-10-24T10:56:52.611Z,98661
2015-10-24T10:57:04.564Z,98662
2015-10-24T10:57:17.846Z,98668
2015-10-24T10:57:29.893Z,98668
2015-10-24T10:57:43.271Z,98662
2015-10-24T10:57:55.146Z,98665
2015-10-24T10:58:06.958Z,98671
2015-10-24T10:58:19.208Z,98660
2015-10-24T10:58:31.052Z,98666
2015-10-24T10:58:42.898Z,98663
2015-10-24T10:58:57.741Z,98660
2015-10-24T10:59:09.679Z,98663
2015-10-24T10:59:21.819Z,98661
2015-10-24T10:59:34.538Z,98658
2015-10-24T10:59:47.071Z,98664
2015-10-24T10:59:58.993Z,98661
2015-10-24T11:00:10.915Z,98667
2015-10-24T11:00:22.806Z,98656
2015-10-24T11:00:34.712Z,98672
2015-10-24T11:00:46.590Z,98672
2015-10-24T11:00:58.496Z,98658
2015-10-24T11:01:10.371Z,98658
2015-10-24T11:01:22.262Z,98658
2015-10-24T11:01:34.153Z,98673
2015-10-24T11:01:46.531Z,98661
2015-10-24T11:01:58.359Z,98658
2015-10-24T11:02:10.187Z,98667
2015-10-24T11:02:22.062Z,98661
2015-10-24T11:02:33.921Z,98661
2015-10-24T11:02:45.862Z,98656
2015-10-24T11:02:57.784Z,98664
2015-10-24T11:03:10.377Z,98670
2015-10-24T11:03:22.190Z,98661
2015-10-24T11:03:37.487Z,98658
2015-10-24T11:03:49.318Z,98651
2015-10-24T11:04:01.130Z,98661
2015-10-24T11:04:12.927Z,98664
2015-10-24T11:04:24.771Z,98654
2015-10-24T11:04:36.583Z,98659
2015-10-24T11:04:51.883Z,98662
2015-10-24T11:05:05.274Z,98659
2015-10-24T11:05:17.086Z,98659
2015-10-24T11:05:28.899Z,98656
2015-10-24T11:05:41.385Z,98654
2015-10-24T11:05:53.167Z,98654
2015-10-24T11:06:05.042Z,98662
2015-10-24T11:06:16.854Z,98662
2015-10-24T11:06:28.698Z,98662
2015-10-24T11:06:40.513Z,98659
2015-10-24T11:06:52.341Z,98659
2015-10-24T11:07:04.545Z,98656
2015-10-24T11:07:16.388Z,98665
2015-10-24T11:07:28.263Z,98656
2015-10-24T11:07:40.173Z,98654
2015-10-24T11:07:52.579Z,98659
2015-10-24T11:08:05.079Z,98659
2015-10-24T11:08:17.469Z,98662
2015-10-24T11:08:29.798Z,98659
2015-10-24T11:08:41.612Z,98665
2015-10-24T11:08:53.425Z,98656
2015-10-24T11:09:05.315Z,98668
2015-10-24T11:09:17.565Z,98654
2015-10-24T11:09:29.393Z,98659
2015-10-24T11:09:41.224Z,98656
2015-10-24T11:09:53.053Z,98654
2015-10-24T11:10:04.912Z,98649
2015-10-24T11:10:16.912Z,98656
2015-10-24T11:10:29.162Z,98659
2015-10-24T11:10:41.055Z,98668
2015-10-24T11:10:53.570Z,98655
2015-10-24T11:11:05.461Z,98649
2015-10-24T11:11:18.586Z,98657
2015-10-24T11:11:30.930Z,98652
2015-10-24T11:11:42.823Z,98662
2015-10-24T11:11:54.714Z,98654
2015-10-24T11:12:06.979Z,98654
2015-10-24T11:12:18.823Z,98659
2015-10-24T11:12:30.667Z,98659
2015-10-24T11:12:42.903Z,98659
2015-10-24T11:12:56.278Z,98656
2015-10-24T11:13:08.138Z,98651
2015-10-24T11:13:19.997Z,98665
2015-10-24T11:13:31.778Z,98654
2015-10-24T11:13:43.641Z,98654
2015-10-24T11:13:55.531Z,98654
2015-10-24T11:14:07.484Z,98656
2015-10-24T11:14:19.313Z,98656
2015-10-24T11:14:31.188Z,98654
2015-10-24T11:14:43.050Z,98642
2015-10-24T11:14:55.003Z,98640
2015-10-24T11:15:06.862Z,98656
2015-10-24T11:15:18.737Z,98656
2015-10-24T11:15:30.628Z,98651
2015-10-24T11:15:42.584Z,98648
2015-10-24T11:15:54.522Z,98654
2015-10-24T11:16:06.334Z,98651
2015-10-24T11:16:18.553Z,98645
2015-10-24T11:16:30.740Z,98648
2015-10-24T11:16:43.055Z,98654
2015-10-24T11:16:55.430Z,98658
2015-10-24T11:17:07.805Z,98637
2015-10-24T11:17:19.649Z,98642
2015-10-24T11:17:31.477Z,98654
2015-10-24T11:17:43.480Z,98654
2015-10-24T11:17:55.433Z,98648
2015-10-24T11:18:07.933Z,98658
2015-10-24T11:18:19.777Z,98651
2015-10-24T11:18:31.699Z,98639
2015-10-24T11:18:44.092Z,98658
2015-10-24T11:18:56.295Z,98651
2015-10-24T11:19:08.123Z,98658
2015-10-24T11:19:20.030Z,98658
2015-10-24T11:19:31.952Z,98648
2015-10-24T11:19:43.813Z,98651
2015-10-24T11:19:55.641Z,98651
2015-10-24T11:20:08.532Z,98651
2015-10-24T11:20:20.329Z,98654
2015-10-24T11:20:32.250Z,98651
2015-10-24T11:20:45.426Z,98648
2015-10-24T11:20:57.317Z,98645
2015-10-24T11:21:09.989Z,98654
2015-10-24T11:21:21.801Z,98651
2015-10-24T11:21:33.661Z,98648
2015-10-24T11:21:45.491Z,98639
2015-10-24T11:21:57.319Z,98648
2015-10-24T11:22:09.147Z,98636
2015-10-24T11:22:21.475Z,98631
2015-10-24T11:22:33.350Z,98639
2015-10-24T11:22:46.166Z,98639
2015-10-24T11:22:58.041Z,98636
2015-10-24T11:23:09.900Z,98639
2015-10-24T11:23:21.838Z,98645
2015-10-24T11:23:33.728Z,98639
2015-10-24T11:23:45.636Z,98648
2015-10-24T11:23:57.527Z,98637
2015-10-24T11:24:09.465Z,98639
2015-10-24T11:24:21.418Z,98648
2015-10-24T11:24:33.340Z,98636
2015-10-24T11:24:45.983Z,98642
2015-10-24T11:24:57.843Z,98639
2015-10-24T11:25:10.155Z,98637
2015-10-24T11:25:22.608Z,98639
2015-10-24T11:25:36.452Z,98642
2015-10-24T11:25:48.939Z,98631
2015-10-24T11:26:00.814Z,98631
2015-10-24T11:26:12.658Z,98631
2015-10-24T11:26:24.502Z,98639
2015-10-24T11:26:36.846Z,98634
2015-10-24T11:26:49.067Z,98631
2015-10-24T11:27:00.927Z,98631
2015-10-24T11:27:13.177Z,98628
2015-10-24T11:27:26.083Z,98637
2015-10-24T11:27:38.005Z,98645
2015-10-24T11:27:49.851Z,98637
2015-10-24T11:28:02.085Z,98642
2015-10-24T11:28:14.476Z,98637
2015-10-24T11:28:26.788Z,98645
2015-10-24T11:28:39.132Z,98645
2015-10-24T11:28:51.056Z,98643
2015-10-24T11:29:03.728Z,98645
2015-10-24T11:29:15.681Z,98637
2015-10-24T11:29:27.853Z,98637
2015-10-24T11:29:41.274Z,98643
2015-10-24T11:29:53.121Z,98643
2015-10-24T11:30:05.512Z,98637
2015-10-24T11:30:17.684Z,98634
2015-10-24T11:30:29.574Z,98634
2015-10-24T11:30:41.496Z,98645
2015-10-24T11:30:53.374Z,98634
2015-10-24T11:31:05.796Z,98645
2015-10-24T11:31:18.312Z,98631
2015-10-24T11:31:30.202Z,98625
2015-10-24T11:31:42.155Z,98634
2015-10-24T11:31:54.080Z,98631
2015-10-24T11:32:05.955Z,98631
2015-10-24T11:32:17.752Z,98625
2015-10-24T11:32:29.705Z,98628
2015-10-24T11:32:42.158Z,98631
2015-10-24T11:34:02.132Z,98637
2015-10-24T11:34:15.398Z,98635
2015-10-24T11:34:27.898Z,98624
2015-10-24T11:34:40.335Z,98624
2015-10-24T11:50:54.663Z,98606
2015-10-24T11:51:12.772Z,98609
2015-10-24T11:51:25.413Z,98606
2015-10-24T11:51:37.506Z,98612
2015-10-24T11:51:53.681Z,98612
2015-10-24T11:52:05.666Z,98612
2015-10-24T11:52:18.103Z,98607
2015-10-24T11:52:30.119Z,98615
2015-10-24T11:52:43.197Z,98610
2015-10-24T11:52:55.169Z,98610
2015-10-24T11:53:07.106Z,98612
2015-10-24T11:53:19.106Z,98612
2015-10-24T11:53:31.090Z,98606
2015-10-24T11:53:44.387Z,98606
2015-10-24T11:53:56.842Z,98609
2015-10-24T11:54:13.889Z,98615
2015-10-24T11:54:25.889Z,98606
2015-10-24T11:54:39.296Z,98604
2015-10-24T11:54:52.236Z,98601
2015-10-24T11:55:04.283Z,98609
2015-10-24T11:55:17.439Z,98604
2015-10-24T11:55:29.814Z,98601
2015-10-24T11:55:42.580Z,98607
2015-10-24T11:55:55.005Z,98610
2015-10-24T11:56:06.989Z,98604
2015-10-24T11:56:20.270Z,98604
2015-10-24T11:56:32.317Z,98604
2015-10-24T11:56:44.302Z,98607
2015-10-24T11:56:56.586Z,98601
2015-10-24T11:57:08.555Z,98601
2015-10-24T11:57:20.523Z,98604
2015-10-24T11:57:36.023Z,98613
2015-10-24T11:57:52.197Z,98604
2015-10-24T11:58:04.213Z,98610
2015-10-24T11:58:16.603Z,98613
2015-10-24T11:58:30.291Z,98596
2015-10-24T11:58:43.822Z,98610
2015-10-24T11:58:56.560Z,98604
2015-10-24T11:59:09.060Z,98613
2015-10-24T11:59:21.028Z,98613
2015-10-24T11:59:33.903Z,98604
2015-10-24T11:59:45.935Z,98602
2015-10-24T11:59:57.922Z,98599
2015-10-24T12:00:11.125Z,98596
2015-10-24T12:00:23.172Z,98602
2015-10-24T12:00:35.063Z,98596
2015-10-24T12:00:47.906Z,98602
2015-10-24T12:01:00.315Z,98599
2015-10-24T12:01:12.361Z,98607
2015-10-24T12:01:31.268Z,98596
2015-10-24T12:01:43.268Z,98602
2015-10-24T12:01:55.239Z,98602
2015-10-24T12:02:07.989Z,98602
2015-10-24T12:02:21.099Z,98602
2015-10-24T12:02:33.099Z,98607
2015-10-24T12:02:45.161Z,98607
2015-10-24T12:02:57.774Z,98610
2015-10-24T12:03:10.196Z,98607
2015-10-24T12:03:24.258Z,98601
2015-10-24T12:03:36.242Z,98601
2015-10-24T18:13:39.161Z,98685
2015-10-24T18:13:53.320Z,98679
2015-10-24T18:14:05.757Z,98693
2015-10-24T18:14:18.163Z,98682
2015-10-24T18:14:30.445Z,98681
2015-10-24T18:14:42.929Z,98690
2015-10-24T18:14:54.963Z,98690
2015-10-24T18:15:08.213Z,98690
2015-10-24T18:15:25.182Z,98693
2015-10-24T18:15:38.057Z,98678
2015-10-24T18:15:50.323Z,98689
2015-10-24T18:16:02.746Z,98689
2015-10-24T18:16:14.731Z,98698
2015-10-24T18:16:26.700Z,98681
2015-10-24T18:16:39.465Z,98686
2015-10-24T18:16:51.731Z,98695
2015-10-24T18:17:04.718Z,98689
2015-10-24T18:17:17.562Z,98684
2015-10-24T18:17:29.671Z,98695
2015-10-24T18:17:42.124Z,98689
2015-10-24T18:17:54.659Z,98689
2015-10-24T18:18:07.252Z,98684
2015-10-24T18:18:19.252Z,98689
2015-10-24T18:18:31.565Z,98692
2015-10-24T18:18:44.190Z,98689
2015-10-24T18:18:56.771Z,98684
2015-10-24T18:19:09.443Z,98687
2015-10-24T18:19:22.037Z,98684
2015-10-24T18:19:34.037Z,98689
2015-10-24T18:19:48.068Z,98687
2015-10-24T18:20:01.914Z,98689
2015-10-24T18:20:15.320Z,98703
2015-10-24T18:20:31.414Z,98692
2015-10-24T18:20:49.664Z,98689
2015-10-24T18:21:03.839Z,98689
2015-10-24T18:21:21.385Z,98695
2015-10-24T18:21:35.026Z,98686
2015-10-24T18:21:56.654Z,98700
2015-10-24T18:22:18.123Z,98686
2015-10-24T18:22:41.748Z,98695
2015-10-24T18:22:55.220Z,98695
2015-10-24T18:23:08.485Z,98689
2015-10-24T18:23:20.501Z,98695
2015-10-24T18:23:32.829Z,98692
2015-10-24T18:23:45.235Z,98703
2015-10-24T18:23:57.268Z,98689
2015-10-24T18:24:09.222Z,98697
2015-10-24T18:24:21.222Z,98691
2015-10-24T18:24:33.206Z,98689
2015-10-24T18:24:46.503Z,98686
2015-10-24T18:24:58.833Z,98686
2015-10-24T18:25:11.833Z,98686
2015-10-24T18:25:23.833Z,98689
2015-10-24T18:25:37.755Z,98689
2015-10-24T18:25:50.630Z,98691
2015-10-24T18:26:04.086Z,98694
2015-10-24T18:26:16.477Z,98686
2015-10-24T18:26:28.492Z,98694
2015-10-24T18:26:40.977Z,98694
2015-10-24T18:26:54.539Z,98686
2015-10-24T18:27:06.590Z,98686
2015-10-24T18:27:19.121Z,98686
2015-10-24T18:27:31.606Z,98677
2015-10-24T18:27:44.809Z,98689
2015-10-24T18:27:57.872Z,98680
2015-10-24T18:28:11.044Z,98694
2015-10-24T18:28:24.341Z,98688
2015-10-24T18:28:36.841Z,98686
2015-10-24T18:28:51.903Z,98686
2015-10-24T18:29:04.844Z,98686
2015-10-24T18:29:17.922Z,98688
2015-10-24T18:29:30.000Z,98691
2015-10-24T18:29:42.641Z,98688
2015-10-24T18:29:55.594Z,98683
2015-10-24T18:30:11.550Z,98688
2015-10-24T18:30:24.394Z,98683
2015-10-24T18:30:42.222Z,98691
2015-10-24T18:30:54.675Z,98700
2015-10-24T18:31:07.537Z,98688
2015-10-24T18:31:22.616Z,98685
2015-10-24T18:31:35.022Z,98697
2015-10-24T18:31:47.959Z,98691
2015-10-24T18:32:00.822Z,98688
2015-10-24T18:32:13.212Z,98694
2015-10-24T18:32:25.822Z,98694
2015-10-24T18:32:38.275Z,98688
2015-10-24T18:32:52.072Z,98691
2015-10-24T18:33:06.450Z,98688
2015-10-24T18:33:19.590Z,98691
2015-10-24T18:33:32.637Z,98691
2015-10-24T18:33:44.981Z,98697
2015-10-24T18:33:57.295Z,98688
2015-10-24T18:34:09.827Z,98691
2015-10-24T18:34:22.202Z,98680
2015-10-24T18:34:34.233Z,98682
2015-10-24T18:34:47.295Z,98682
2015-10-24T18:34:59.814Z,98685
2015-10-24T18:35:12.752Z,98694
2015-10-24T18:35:25.627Z,98688
2015-10-24T18:35:38.752Z,98694
2015-10-24T18:35:51.283Z,98685
2015-10-24T18:36:03.785Z,98685
2015-10-24T18:36:18.129Z,98685
2015-10-24T18:36:30.738Z,98685
2015-10-24T18:36:43.910Z,98683
2015-10-24T18:36:55.972Z,98685
2015-10-24T18:37:08.553Z,98685
2015-10-24T18:37:21.100Z,98680
2015-10-24T18:37:37.600Z,98691
2015-10-24T18:37:53.350Z,98694
2015-10-24T18:38:06.650Z,98697
2015-10-24T18:38:23.416Z,98697
2015-10-24T18:38:36.838Z,98688
2015-10-24T18:38:49.806Z,98682
2015-10-24T18:39:01.856Z,98691
2015-10-24T18:39:14.747Z,98691
2015-10-24T18:39:27.122Z,98694
2015-10-24T18:39:40.138Z,98696
2015-10-24T18:39:54.138Z,98696
2015-10-24T18:40:08.608Z,98694
2015-10-24T18:40:20.561Z,98697
2015-10-24T18:40:32.968Z,98697
2015-10-24T18:40:45.390Z,98691
2015-10-24T18:41:00.502Z,98694
2015-10-24T18:41:13.393Z,98688
2015-10-24T18:41:25.502Z,98691
2015-10-24T18:41:37.564Z,98694
2015-10-24T18:41:54.564Z,98696
2015-10-24T18:42:08.114Z,98694
2015-10-24T18:42:20.536Z,98699
2015-10-24T18:42:33.536Z,98691
2015-10-24T18:42:46.083Z,98702
2015-10-24T18:42:58.052Z,98685
2015-10-24T18:43:10.616Z,98694
2015-10-24T18:43:23.569Z,98699
2015-10-24T18:43:42.351Z,98699
2015-10-24T18:43:56.569Z,98702
2015-10-24T18:44:11.588Z,98705
2015-10-24T18:44:24.135Z,98697
2015-10-24T18:44:38.729Z,98699
2015-10-24T18:44:51.713Z,98697
2015-10-24T18:45:09.497Z,98708
2015-10-24T18:45:21.997Z,98699
2015-10-24T18:45:34.763Z,98696
2015-10-24T18:45:47.075Z,98699
2015-10-24T18:45:59.060Z,98699
2015-10-24T18:46:12.468Z,98694
2015-10-24T18:46:25.046Z,98696
2015-10-24T18:46:37.046Z,98696
2015-10-24T19:19:09.544Z,98711
2015-10-24T19:19:22.310Z,98705
2015-10-24T19:19:36.313Z,98710
2015-10-24T19:19:48.360Z,98713
2015-10-24T19:20:01.266Z,98716
2015-10-24T19:20:13.516Z,98704
2015-10-24T19:20:25.596Z,98713
2015-10-24T19:20:38.002Z,98716
2015-10-24T19:20:50.065Z,98716
2015-10-24T19:21:01.987Z,98702
2015-10-24T19:21:14.877Z,98710
2015-10-24T19:21:27.177Z,98719
2015-10-24T19:21:40.380Z,98716
2015-10-24T19:21:52.834Z,98707
2015-10-24T19:22:06.224Z,98713
2015-10-24T19:22:18.927Z,98713
2015-10-24T19:22:31.930Z,98722
2015-10-24T19:22:44.571Z,98708
2015-10-24T19:22:57.071Z,98722
2015-10-24T19:23:11.399Z,98722
2015-10-24T19:23:23.962Z,98713
2015-10-24T19:23:36.761Z,98719
2015-10-24T19:23:49.621Z,98725
2015-10-24T19:24:02.152Z,98727
2015-10-24T19:24:14.183Z,98722
2015-10-24T19:24:27.452Z,98722
2015-10-24T19:24:40.108Z,98716
2015-10-24T19:24:52.686Z,98713
2015-10-24T19:25:05.499Z,98719
2015-10-24T19:25:17.436Z,98713
2015-10-24T19:25:30.548Z,98728
2015-10-24T19:25:42.923Z,98719
2015-10-24T19:25:55.673Z,98722
2015-10-24T19:26:07.657Z,98719
2015-10-24T19:26:19.657Z,98728
2015-10-24T19:26:37.207Z,98727
2015-10-24T19:26:49.785Z,98722
2015-10-24T19:27:05.566Z,98725
2015-10-24T19:27:17.676Z,98736
2015-10-24T19:27:30.741Z,98716
2015-10-24T19:27:42.835Z,98730
2015-10-24T19:27:56.304Z,98716
2015-10-24T19:28:08.335Z,98713
2015-10-24T19:28:20.851Z,98716
2015-10-24T19:28:33.135Z,98722
2015-10-24T19:28:45.541Z,98730
2015-10-24T19:28:58.041Z,98722
2015-10-24T19:29:10.119Z,98722
2015-10-24T19:29:22.635Z,98719
2015-10-24T19:29:35.371Z,98730
2015-10-24T19:29:48.637Z,98728
2015-10-24T19:30:01.246Z,98719
2015-10-24T19:30:13.356Z,98719
2015-10-24T19:30:25.902Z,98722
2015-10-24T19:30:39.405Z,98725
2015-10-24T19:30:57.452Z,98722
2015-10-24T19:31:09.437Z,98722
2015-10-24T19:31:21.827Z,98731
2015-10-24T19:31:34.142Z,98722
2015-10-24T19:31:46.579Z,98719
2015-10-24T19:32:03.126Z,98728
2015-10-24T19:32:15.689Z,98722
2015-10-24T19:32:27.673Z,98725
2015-10-24T19:32:40.301Z,98733
2015-10-24T19:32:52.348Z,98716
2015-10-24T19:33:05.020Z,98722
2015-10-24T19:33:17.067Z,98728
2015-10-24T19:33:29.023Z,98728
2015-10-24T19:33:42.085Z,98725
2015-10-24T19:33:57.617Z,98725
2015-10-24T19:34:09.898Z,98722
2015-10-24T19:34:22.788Z,98725
2015-10-24T19:34:35.603Z,98725
2015-10-24T19:34:48.478Z,98725
2015-10-24T19:35:01.134Z,98736
2015-10-24T19:35:13.197Z,98719
2015-10-24T19:35:25.494Z,98725
2015-10-24T19:35:38.013Z,98731
2015-10-24T19:35:50.998Z,98733
2015-10-24T19:36:02.998Z,98725
2015-10-24T19:36:15.091Z,98728
2015-10-24T19:36:28.216Z,98731
2015-10-24T19:36:40.265Z,98725
2015-10-24T19:36:53.796Z,98733
2015-10-24T19:37:06.859Z,98725
2015-10-24T19:37:23.046Z,98722
2015-10-24T19:37:35.893Z,98725
2015-10-24T19:37:49.471Z,98725
2015-10-24T19:38:01.440Z,98736
2015-10-24T19:38:19.956Z,98730
2015-10-24T19:38:36.286Z,98728
2015-10-24T19:38:48.786Z,98722
2015-10-24T19:39:01.458Z,98725
2015-10-24T19:39:18.036Z,98725
2015-10-24T19:39:30.148Z,98728
2015-10-24T19:39:43.242Z,98731
2015-10-24T19:39:55.992Z,98716
2015-10-24T19:40:08.367Z,98722
2015-10-24T19:40:20.476Z,98731
2015-10-24T19:40:33.198Z,98725
2015-10-24T19:40:45.557Z,98733
2015-10-24T19:40:57.604Z,98730
2015-10-24T19:41:10.276Z,98725
2015-10-24T19:41:23.057Z,98713
2015-10-24T19:41:36.075Z,98730
2015-10-24T19:41:48.606Z,98722
2015-10-24T19:42:01.528Z,98728
2015-10-24T19:42:13.669Z,98733
2015-10-24T19:42:26.075Z,98730
2015-10-24T19:42:38.109Z,98728
2015-10-24T19:42:50.703Z,98733
2015-10-24T19:43:03.234Z,98725
2015-10-24T19:43:15.203Z,98733
2015-10-24T19:43:27.750Z,98728
2015-10-24T19:43:42.018Z,98736
2015-10-24T19:43:54.877Z,98739
2015-10-24T19:44:07.486Z,98733
2015-10-24T19:44:23.189Z,98730
2015-10-24T19:44:39.647Z,98733
2015-10-24T19:44:51.600Z,98733
2015-10-24T19:45:03.881Z,98725
2015-10-24T19:45:16.787Z,98730
2015-10-24T19:45:29.381Z,98719
2015-10-24T19:45:43.086Z,98722
2015-10-24T19:45:55.461Z,98728
2015-10-24T19:46:08.414Z,98725
2015-10-24T19:46:20.930Z,98736
2015-10-24T19:46:38.698Z,98736
2015-10-24T19:46:51.183Z,98733
2015-10-24T19:47:03.667Z,98730
2015-10-24T19:47:19.995Z,98733
2015-10-24T19:47:33.357Z,98739
2015-10-24T19:47:45.935Z,98728
2015-10-24T19:48:02.419Z,98739
2015-10-24T19:48:14.450Z,98731
2015-10-24T19:48:26.950Z,98736
2015-10-24T19:48:39.719Z,98739
2015-10-24T19:48:59.875Z,98739
2015-10-24T19:49:13.547Z,98736
2015-10-24T19:49:26.078Z,98736
2015-10-24T19:49:40.050Z,98733
2015-10-24T19:49:54.347Z,98728
2015-10-24T19:50:07.160Z,98736
2015-10-24T19:50:19.581Z,98739
2015-10-24T19:50:32.178Z,98745